Time;durP1;ratioP1;P1;durP2;ratioP2;P2;SDS_P1;SDS_P2;PMS_P1;PMS_P2;Temp;Humidity;BMP_temperature;BMP_pressure;BME280_temperature;BME280_humidity;BME280_pressure;Samples;Min_cycle;Max_cycle;Signal;HPM_P1;HPM_P2
2023/03/10 00:01:22;;;;;;;;;;;;;;;4.52;100.00;96350.58;110149;1241;69837;-66
2023/03/10 00:03:52;;;;;;;;;;;;;;;4.42;100.00;96353.48;110217;1241;69691;-66
2023/03/10 00:06:24;;;;;;;;;;;;;;;4.31;100.00;96357.09;110184;1241;59770;-66
2023/03/10 00:08:54;;;;;;;;;;;;;;;4.24;100.00;96361.20;110192;1243;59760;-66
2023/03/10 00:11:23;;;;;;;;;;;;;;;4.18;100.00;96362.76;110179;1245;71973;-66
2023/03/10 00:13:52;;;;;;;;;;;;;;;4.15;100.00;96363.80;110160;1243;69815;-66
2023/03/10 00:16:22;;;;;;;;;;;;;;;4.11;100.00;96365.48;110198;1241;69304;-66
2023/03/10 00:18:52;;;;;;;;;;;;;;;4.07;100.00;96356.40;110158;1241;59740;-66
2023/03/10 00:21:23;;;;;;;;;;;;;;;4.03;100.00;96350.73;110161;1241;59676;-66
2023/03/10 00:23:53;;;;;;;;;;;;;;;4.00;100.00;96348.91;110153;1241;71428;-67
2023/03/10 00:26:23;;;;;;;;;;;;;;;3.97;100.00;96355.29;110176;1241;68335;-66
2023/03/10 00:28:54;;;;;;;;;;;;;;;3.95;100.00;96362.00;110107;1244;69445;-66
2023/03/10 00:31:24;;;;;;;;;;;;;;;3.90;100.00;96352.98;110144;1241;59729;-67
2023/03/10 00:33:55;;;;;;;;;;;;;;;3.90;100.00;96340.58;110149;1244;59689;-66
2023/03/10 00:36:27;;;;;;;;;;;;;;;3.91;100.00;96333.23;110234;1244;70653;-67
2023/03/10 00:39:03;;;;;;;;;;;;;;;3.90;100.00;96329.19;110196;1241;68736;-67
2023/03/10 00:41:35;;;;;;;;;;;;;;;3.89;100.00;96331.48;110226;1244;69325;-66
2023/03/10 00:44:05;;;;;;;;;;;;;;;3.86;100.00;96333.42;110207;1241;59754;-67
2023/03/10 00:46:37;;;;;;;;;;;;;;;3.78;100.00;96339.63;110229;1241;59742;-66
2023/03/10 00:49:08;;;;;;;;;;;;;;;3.73;100.00;96346.51;110145;1241;71560;-66
2023/03/10 00:51:37;;;;;;;;;;;;;;;3.71;100.00;96343.54;110141;1243;68238;-67
2023/03/10 00:54:05;;;;;;;;;;;;;;;3.74;100.00;96345.21;110151;1245;68804;-66
2023/03/10 00:56:34;;;;;;;;;;;;;;;3.71;100.00;96350.17;110141;1243;59753;-67
2023/03/10 00:59:05;;;;;;;;;;;;;;;3.62;100.00;96356.10;110135;1244;59636;-66
2023/03/10 01:01:38;;;;;;;;;;;;;;;3.51;100.00;96359.52;110180;1244;71478;-67
2023/03/10 01:04:11;;;;;;;;;;;;;;;3.42;100.00;96363.70;110208;1243;69694;-67
2023/03/10 01:06:43;;;;;;;;;;;;;;;3.33;100.00;96364.77;110164;1244;69817;-66
2023/03/10 01:09:15;;;;;;;;;;;;;;;3.25;100.00;96363.05;110153;1244;59696;-66
2023/03/10 01:11:44;;;;;;;;;;;;;;;3.12;100.00;96362.10;110198;1241;59709;-67
2023/03/10 01:14:14;;;;;;;;;;;;;;;3.02;100.00;96365.59;109657;1242;651173;-66
2023/03/10 01:16:45;;;;;;;;;;;;;;;2.94;100.00;96360.02;110159;1243;69882;-66
2023/03/10 01:19:15;;;;;;;;;;;;;;;2.90;100.00;96351.14;110164;1243;68515;-67
2023/03/10 01:21:44;;;;;;;;;;;;;;;2.88;100.00;96345.13;110154;1244;59667;-67
2023/03/10 01:24:15;;;;;;;;;;;;;;;2.86;100.00;96341.45;110207;1243;59744;-67
2023/03/10 01:26:45;;;;;;;;;;;;;;;2.84;100.00;96340.33;110167;1244;71479;-66
2023/03/10 01:29:14;;;;;;;;;;;;;;;2.85;100.00;96344.25;110153;1241;69033;-67
2023/03/10 01:31:43;;;;;;;;;;;;;;;2.82;100.00;96345.11;110210;1244;69275;-66
2023/03/10 01:34:13;;;;;;;;;;;;;;;2.80;100.00;96346.77;110171;1241;59709;-66
2023/03/10 01:36:44;;;;;;;;;;;;;;;2.81;100.00;96346.33;110191;1244;59770;-66
2023/03/10 01:39:16;;;;;;;;;;;;;;;2.80;100.00;96342.30;110127;1245;71308;-67
2023/03/10 01:41:46;;;;;;;;;;;;;;;2.79;100.00;96344.93;110124;1245;69275;-66
2023/03/10 01:44:18;;;;;;;;;;;;;;;2.79;100.00;96344.22;110090;1244;69352;-67
2023/03/10 01:46:51;;;;;;;;;;;;;;;2.83;100.00;96344.38;110129;1241;59675;-67
2023/03/10 01:49:28;;;;;;;;;;;;;;;2.83;100.00;96346.95;110158;1244;59694;-67
2023/03/10 01:52:10;;;;;;;;;;;;;;;2.83;100.00;96349.35;110091;1244;70661;-67
2023/03/10 01:54:52;;;;;;;;;;;;;;;2.81;100.00;96354.11;110145;1244;68740;-67
2023/03/10 01:57:24;;;;;;;;;;;;;;;2.78;100.00;96357.02;109893;1245;68529;-67
2023/03/10 01:59:58;;;;;;;;;;;;;;;2.75;100.00;96358.75;110153;1241;59713;-65
2023/03/10 02:02:33;;;;;;;;;;;;;;;2.72;100.00;96364.09;110164;1243;59642;-67
2023/03/10 02:05:04;;;;;;;;;;;;;;;2.66;100.00;96363.39;110129;1244;71420;-66
2023/03/10 02:07:35;;;;;;;;;;;;;;;2.58;100.00;96362.53;110155;1241;68366;-66
2023/03/10 02:10:05;;;;;;;;;;;;;;;2.50;100.00;96362.41;110164;1245;69782;-66
2023/03/10 02:12:36;;;;;;;;;;;;;;;2.44;100.00;96369.31;110204;1245;59777;-66
2023/03/10 02:15:06;;;;;;;;;;;;;;;2.39;100.00;96369.61;110242;1242;59679;-66
2023/03/10 02:17:37;;;;;;;;;;;;;;;2.33;100.00;96378.85;110143;1241;71799;-67
2023/03/10 02:20:13;;;;;;;;;;;;;;;2.28;100.00;96379.47;110166;1241;69371;-67
2023/03/10 02:22:44;;;;;;;;;;;;;;;2.26;100.00;96382.19;110156;1244;69473;-66
2023/03/10 02:25:29;;;;;;;;;;;;;;;2.26;100.00;96382.02;110161;1241;59768;-67
2023/03/10 02:28:01;;;;;;;;;;;;;;;2.25;100.00;96382.09;110177;1241;59692;-67
2023/03/10 02:30:40;;;;;;;;;;;;;;;2.26;100.00;96382.55;110132;1241;71691;-67
2023/03/10 02:33:14;;;;;;;;;;;;;;;2.30;100.00;96385.41;110186;1243;68133;-67
2023/03/10 02:35:45;;;;;;;;;;;;;;;2.31;100.00;96381.05;110159;1244;69449;-67
2023/03/10 02:38:19;;;;;;;;;;;;;;;2.32;100.00;96381.70;110222;1241;59631;-67
2023/03/10 02:40:51;;;;;;;;;;;;;;;2.30;100.00;96382.12;110199;1243;59744;-66
2023/03/10 02:43:27;;;;;;;;;;;;;;;2.25;100.00;96384.80;110124;1241;71762;-66
2023/03/10 02:46:06;;;;;;;;;;;;;;;2.23;100.00;96382.90;110210;1244;68481;-66
2023/03/10 02:48:40;;;;;;;;;;;;;;;2.23;100.00;96380.98;110249;1244;69322;-66
2023/03/10 02:51:22;;;;;;;;;;;;;;;2.26;100.00;96379.27;110154;1244;59679;-67
2023/03/10 02:53:55;;;;;;;;;;;;;;;2.34;100.00;96379.87;110192;1243;59846;-67
2023/03/10 02:56:26;;;;;;;;;;;;;;;2.41;100.00;96382.53;110272;1244;70423;-67
2023/03/10 02:58:58;;;;;;;;;;;;;;;2.45;100.00;96384.20;110130;1241;69207;-66
2023/03/10 03:01:29;;;;;;;;;;;;;;;2.48;100.00;96386.10;110185;1241;68512;-67
2023/03/10 03:04:00;;;;;;;;;;;;;;;2.51;100.00;96384.41;110127;1241;59747;-67
2023/03/10 03:06:32;;;;;;;;;;;;;;;2.54;100.00;96379.76;110205;1243;59681;-67
2023/03/10 03:09:04;;;;;;;;;;;;;;;2.51;100.00;96386.61;110209;1241;70581;-66
2023/03/10 03:11:36;;;;;;;;;;;;;;;2.42;100.00;96389.36;110174;1244;69237;-67
2023/03/10 03:14:07;;;;;;;;;;;;;;;2.30;100.00;96385.23;110111;1244;69185;-67
2023/03/10 03:16:37;;;;;;;;;;;;;;;2.20;100.00;96385.11;110111;1242;59690;-67
2023/03/10 03:19:09;;;;;;;;;;;;;;;2.12;100.00;96392.44;110088;1242;59662;-66
2023/03/10 03:21:40;;;;;;;;;;;;;;;2.06;100.00;96389.15;110183;1241;71287;-67
2023/03/10 03:24:11;;;;;;;;;;;;;;;2.00;100.00;96381.21;110187;1244;69214;-67
2023/03/10 03:26:40;;;;;;;;;;;;;;;1.98;100.00;96378.25;110116;1244;68553;-67
2023/03/10 03:29:16;;;;;;;;;;;;;;;1.95;100.00;96382.02;110101;1248;59686;-67
2023/03/10 03:31:46;;;;;;;;;;;;;;;1.91;100.00;96380.02;110151;1244;59673;-66
2023/03/10 03:34:21;;;;;;;;;;;;;;;1.87;100.00;96376.94;110158;1244;71611;-66
2023/03/10 03:36:53;;;;;;;;;;;;;;;1.89;100.00;96371.88;110146;1241;68868;-66
2023/03/10 03:39:28;;;;;;;;;;;;;;;1.92;100.00;96369.95;110142;1243;70066;-66
2023/03/10 03:42:00;;;;;;;;;;;;;;;1.93;100.00;96370.80;110111;1244;59798;-66
2023/03/10 03:44:33;;;;;;;;;;;;;;;1.92;100.00;96373.23;110126;1244;59673;-67
2023/03/10 03:47:04;;;;;;;;;;;;;;;1.91;100.00;96368.31;110097;1241;71448;-66
2023/03/10 03:49:34;;;;;;;;;;;;;;;1.96;100.00;96367.87;110180;1241;68926;-67
2023/03/10 03:52:05;;;;;;;;;;;;;;;2.00;100.00;96371.76;110072;1244;68366;-67
2023/03/10 03:54:35;;;;;;;;;;;;;;;2.05;100.00;96372.02;110135;1241;59811;-66
2023/03/10 03:57:04;;;;;;;;;;;;;;;2.09;100.00;96373.86;110095;1244;59746;-66
2023/03/10 03:59:34;;;;;;;;;;;;;;;2.13;100.00;96372.42;110070;1242;70416;-66
2023/03/10 04:02:03;;;;;;;;;;;;;;;2.17;100.00;96373.08;110109;1241;69163;-66
2023/03/10 04:04:33;;;;;;;;;;;;;;;2.19;100.00;96371.05;110143;1244;69240;-66
2023/03/10 04:07:02;;;;;;;;;;;;;;;2.22;100.00;96370.90;110153;1241;59772;-66
2023/03/10 04:09:32;;;;;;;;;;;;;;;2.22;100.00;96374.71;110166;1241;59718;-66
2023/03/10 04:12:01;;;;;;;;;;;;;;;2.18;100.00;96376.47;110176;1241;70760;-66
2023/03/10 04:14:31;;;;;;;;;;;;;;;2.15;100.00;96369.95;110061;1244;69109;-66
2023/03/10 04:17:01;;;;;;;;;;;;;;;2.16;100.00;96367.78;110091;1241;69254;-66
2023/03/10 04:19:31;;;;;;;;;;;;;;;2.19;100.00;96361.30;110130;1244;59747;-66
2023/03/10 04:22:04;;;;;;;;;;;;;;;2.18;100.00;96363.55;110270;1241;59735;-67
2023/03/10 04:24:37;;;;;;;;;;;;;;;2.15;100.00;96356.16;110151;1241;71333;-66
2023/03/10 04:27:08;;;;;;;;;;;;;;;2.11;100.00;96351.77;110123;1241;68395;-66
2023/03/10 04:29:38;;;;;;;;;;;;;;;2.06;100.00;96346.00;110135;1244;69271;-66
2023/03/10 04:32:07;;;;;;;;;;;;;;;2.04;100.00;96346.28;110157;1241;60154;-66
2023/03/10 04:34:39;;;;;;;;;;;;;;;2.04;100.00;96343.55;110103;1241;59773;-66
2023/03/10 04:37:10;;;;;;;;;;;;;;;2.05;100.00;96339.05;110189;1243;71194;-66
2023/03/10 04:39:40;;;;;;;;;;;;;;;2.07;100.00;96337.73;110149;1244;69136;-68
2023/03/10 04:42:09;;;;;;;;;;;;;;;2.07;100.00;96339.63;110169;1241;68572;-65
2023/03/10 04:44:38;;;;;;;;;;;;;;;2.06;100.00;96340.16;110131;1241;60152;-65
2023/03/10 04:47:07;;;;;;;;;;;;;;;2.06;100.00;96343.45;110171;1245;59809;-65
2023/03/10 04:49:37;;;;;;;;;;;;;;;2.07;100.00;96344.97;110160;1244;70811;-65
2023/03/10 04:52:10;;;;;;;;;;;;;;;2.07;100.00;96344.58;110167;1244;69207;-65
2023/03/10 04:54:40;;;;;;;;;;;;;;;2.07;100.00;96342.34;110164;1244;68367;-65
2023/03/10 04:57:08;;;;;;;;;;;;;;;2.08;100.00;96347.09;110165;1241;59772;-65
2023/03/10 04:59:39;;;;;;;;;;;;;;;2.11;100.00;96345.73;110179;1241;59747;-66
2023/03/10 05:02:07;;;;;;;;;;;;;;;2.15;100.00;96341.21;110245;1244;71355;-66
2023/03/10 05:04:38;;;;;;;;;;;;;;;2.17;100.00;96334.42;110195;1241;68286;-68
2023/03/10 05:07:09;;;;;;;;;;;;;;;2.18;100.00;96337.29;110211;1246;68455;-65
2023/03/10 05:09:44;;;;;;;;;;;;;;;2.20;100.00;96336.67;110205;1243;59673;-65
2023/03/10 05:12:13;;;;;;;;;;;;;;;2.22;100.00;96335.48;110199;1241;59725;-67
2023/03/10 05:14:42;;;;;;;;;;;;;;;2.27;100.00;96330.55;110203;1241;71971;-65
2023/03/10 05:17:12;;;;;;;;;;;;;;;2.35;100.00;96327.69;110191;1244;69194;-66
2023/03/10 05:19:41;;;;;;;;;;;;;;;2.42;100.00;96331.05;109991;1245;68500;-65
2023/03/10 05:22:11;;;;;;;;;;;;;;;2.49;100.00;96331.17;110068;1244;59677;-65
2023/03/10 05:24:40;;;;;;;;;;;;;;;2.56;100.00;96328.58;110251;1244;59702;-66
2023/03/10 05:27:10;;;;;;;;;;;;;;;2.70;100.00;96330.69;110177;1241;70569;-66
2023/03/10 05:29:41;;;;;;;;;;;;;;;2.88;100.00;96335.80;110158;1243;69811;-66
2023/03/10 05:32:16;;;;;;;;;;;;;;;3.13;100.00;96337.25;110107;1244;68638;-66
2023/03/10 05:34:47;;;;;;;;;;;;;;;3.39;100.00;96335.83;110104;1244;59694;-67
2023/03/10 05:37:17;;;;;;;;;;;;;;;3.67;100.00;96326.37;110213;1245;59695;-66
2023/03/10 05:39:46;;;;;;;;;;;;;;;3.94;100.00;96320.70;110229;1243;69848;-66
2023/03/10 05:42:19;;;;;;;;;;;;;;;4.18;100.00;96319.86;110167;1243;69852;-66
2023/03/10 05:44:48;;;;;;;;;;;;;;;4.46;100.00;96322.49;110181;1241;69326;-66
2023/03/10 05:47:18;;;;;;;;;;;;;;;4.75;100.00;96319.35;110189;1244;59686;-67
2023/03/10 05:49:47;;;;;;;;;;;;;;;5.06;100.00;96325.41;110199;1241;59691;-66
2023/03/10 05:52:17;;;;;;;;;;;;;;;5.35;100.00;96332.89;110191;1241;71563;-66
2023/03/10 05:54:45;;;;;;;;;;;;;;;5.69;100.00;96339.70;110179;1243;69789;-66
2023/03/10 05:57:14;;;;;;;;;;;;;;;5.96;100.00;96339.17;110144;1243;69206;-66
2023/03/10 05:59:44;;;;;;;;;;;;;;;6.21;100.00;96331.01;110134;1244;59739;-66
2023/03/10 06:02:13;;;;;;;;;;;;;;;6.51;100.00;96335.90;110174;1242;59685;-66
2023/03/10 06:04:43;;;;;;;;;;;;;;;6.74;100.00;96341.31;110166;1244;71377;-66
2023/03/10 06:07:11;;;;;;;;;;;;;;;7.03;100.00;96337.41;110214;1244;69014;-65
2023/03/10 06:09:40;;;;;;;;;;;;;;;7.38;100.00;96334.02;110151;1241;69900;-67
2023/03/10 06:12:10;;;;;;;;;;;;;;;7.74;100.00;96337.80;110153;1244;60020;-65
2023/03/10 06:14:40;;;;;;;;;;;;;;;7.95;100.00;96341.52;110181;1241;59689;-65
2023/03/10 06:17:08;;;;;;;;;;;;;;;8.20;99.11;96343.86;110102;1241;71183;-65
2023/03/10 06:19:37;;;;;;;;;;;;;;;8.45;97.52;96343.15;110169;1241;69225;-66
2023/03/10 06:22:06;;;;;;;;;;;;;;;8.66;97.90;96343.16;110150;1245;68265;-66
2023/03/10 06:24:35;;;;;;;;;;;;;;;8.74;94.61;96344.61;110035;1241;59746;-66
2023/03/10 06:27:04;;;;;;;;;;;;;;;8.96;96.05;96344.80;110156;1241;59738;-66
2023/03/10 06:29:33;;;;;;;;;;;;;;;9.28;100.00;96344.02;110136;1241;72288;-66
2023/03/10 06:32:03;;;;;;;;;;;;;;;9.57;99.42;96350.09;110162;1241;69115;-64
2023/03/10 06:34:31;;;;;;;;;;;;;;;9.82;96.56;96345.70;110144;1243;70203;-66
2023/03/10 06:37:00;;;;;;;;;;;;;;;10.05;96.25;96345.98;110128;1241;59702;-65
2023/03/10 06:39:29;;;;;;;;;;;;;;;10.22;97.12;96352.73;110129;1245;59734;-65
2023/03/10 06:41:59;;;;;;;;;;;;;;;10.24;87.69;96353.71;110162;1241;71728;-64
2023/03/10 06:44:27;;;;;;;;;;;;;;;10.33;88.44;96354.18;110131;1241;68539;-67
2023/03/10 06:46:56;;;;;;;;;;;;;;;10.42;88.26;96354.44;110101;1241;68511;-67
2023/03/10 06:49:29;;;;;;;;;;;;;;;10.45;87.65;96354.00;110136;1243;59687;-66
2023/03/10 06:51:58;;;;;;;;;;;;;;;10.61;85.80;96354.10;110124;1244;59663;-65
2023/03/10 06:54:26;;;;;;;;;;;;;;;10.75;84.04;96351.27;110134;1244;72143;-64
2023/03/10 06:56:56;;;;;;;;;;;;;;;10.98;85.78;96355.97;110139;1243;69717;-66
2023/03/10 06:59:24;;;;;;;;;;;;;;;11.17;83.01;96355.09;110157;1243;69132;-65
2023/03/10 07:01:53;;;;;;;;;;;;;;;11.39;82.25;96358.44;110153;1241;59661;-68
2023/03/10 07:04:22;;;;;;;;;;;;;;;11.61;82.16;96359.89;110209;1243;59659;-66
2023/03/10 07:06:51;;;;;;;;;;;;;;;11.85;80.91;96364.66;110149;1243;72209;-66
2023/03/10 07:09:19;;;;;;;;;;;;;;;12.16;83.55;96356.67;110156;1241;69227;-67
2023/03/10 07:11:48;;;;;;;;;;;;;;;12.20;80.45;96357.20;110182;1243;69758;-66
2023/03/10 07:14:17;;;;;;;;;;;;;;;12.23;78.70;96355.01;110136;1244;59763;-68
2023/03/10 07:16:45;;;;;;;;;;;;;;;12.43;80.28;96351.77;110265;1241;59665;-66
2023/03/10 07:19:15;;;;;;;;;;;;;;;12.38;77.43;96352.25;110175;1243;70907;-66
2023/03/10 07:21:43;;;;;;;;;;;;;;;12.46;76.59;96352.89;110211;1241;69218;-64
2023/03/10 07:24:12;;;;;;;;;;;;;;;12.45;76.68;96353.50;110185;1241;69845;-66
2023/03/10 07:26:41;;;;;;;;;;;;;;;12.47;75.98;96354.94;110160;1241;59754;-68
2023/03/10 07:29:11;;;;;;;;;;;;;;;12.70;75.51;96353.73;110162;1244;59699;-66
2023/03/10 07:31:39;;;;;;;;;;;;;;;12.81;74.36;96350.39;110141;1244;71353;-65
2023/03/10 07:34:08;;;;;;;;;;;;;;;12.99;75.24;96351.71;110149;1243;68772;-65
2023/03/10 07:36:37;;;;;;;;;;;;;;;12.99;72.71;96352.58;110155;1243;67650;-65
2023/03/10 07:39:06;;;;;;;;;;;;;;;12.97;72.67;96349.09;110296;1244;59744;-66
2023/03/10 07:41:34;;;;;;;;;;;;;;;12.89;71.60;96343.48;110213;1244;59064;-67
2023/03/10 07:44:03;;;;;;;;;;;;;;;12.95;72.16;96339.91;110139;1241;71989;-69
2023/03/10 07:46:32;;;;;;;;;;;;;;;12.94;71.10;96334.17;110118;1243;69164;-73
2023/03/10 07:49:03;;;;;;;;;;;;;;;12.92;70.77;96331.38;110337;1244;69792;-68
2023/03/10 07:51:32;;;;;;;;;;;;;;;13.16;71.91;96333.09;110154;1241;59754;-69
2023/03/10 07:54:01;;;;;;;;;;;;;;;13.47;71.40;96331.89;110197;1245;59682;-66
2023/03/10 07:56:30;;;;;;;;;;;;;;;13.76;70.08;96325.22;110135;1241;71069;-68
2023/03/10 07:58:59;;;;;;;;;;;;;;;14.01;69.18;96322.82;110183;1243;69203;-69
2023/03/10 08:01:29;;;;;;;;;;;;;;;14.31;69.25;96318.66;110194;1248;69856;-69
2023/03/10 08:03:57;;;;;;;;;;;;;;;14.51;67.85;96313.16;110208;1241;59658;-67
2023/03/10 08:06:27;;;;;;;;;;;;;;;14.60;66.97;96309.51;110295;1244;59684;-69
2023/03/10 08:08:56;;;;;;;;;;;;;;;14.67;65.95;96303.30;110168;1245;71391;-69
2023/03/10 08:11:27;;;;;;;;;;;;;;;14.68;65.54;96296.19;110215;1245;69170;-68
2023/03/10 08:13:55;;;;;;;;;;;;;;;14.78;66.30;96289.98;110203;1242;69240;-66
2023/03/10 08:16:25;;;;;;;;;;;;;;;14.93;64.77;96287.73;110080;1243;59667;-67
2023/03/10 08:18:54;;;;;;;;;;;;;;;14.85;64.96;96282.05;110227;1241;59660;-67
2023/03/10 08:21:23;;;;;;;;;;;;;;;14.65;64.08;96275.30;110244;1244;72036;-67
2023/03/10 08:23:52;;;;;;;;;;;;;;;14.57;64.29;96273.80;110166;1241;69609;-70
2023/03/10 08:26:21;;;;;;;;;;;;;;;14.50;65.19;96271.94;110195;1243;69894;-69
2023/03/10 08:28:50;;;;;;;;;;;;;;;14.50;64.79;96269.00;110201;1242;59664;-67
2023/03/10 08:31:22;;;;;;;;;;;;;;;14.34;64.65;96267.52;110172;1241;59683;-68
2023/03/10 08:33:54;;;;;;;;;;;;;;;14.04;65.03;96260.00;110210;1245;70667;-67
2023/03/10 08:36:24;;;;;;;;;;;;;;;13.94;65.41;96258.36;110177;1241;69101;-68
2023/03/10 08:38:53;;;;;;;;;;;;;;;13.75;65.44;96251.58;110131;1241;69274;-67
2023/03/10 08:41:30;;;;;;;;;;;;;;;13.68;65.93;96250.05;110053;1244;59737;-66
2023/03/10 08:43:59;;;;;;;;;;;;;;;13.58;66.12;96248.52;110172;1244;59724;-67
2023/03/10 08:46:29;;;;;;;;;;;;;;;13.55;66.61;96249.02;110163;1241;70621;-68
2023/03/10 08:48:58;;;;;;;;;;;;;;;13.66;66.48;96245.86;110157;1241;68368;-67
2023/03/10 08:51:27;;;;;;;;;;;;;;;13.73;66.60;96239.63;110154;1245;68534;-66
2023/03/10 08:53:56;;;;;;;;;;;;;;;13.90;65.30;96235.06;110132;1245;60155;-68
2023/03/10 08:56:25;;;;;;;;;;;;;;;14.11;64.77;96233.53;110135;1245;59751;-67
2023/03/10 08:58:57;;;;;;;;;;;;;;;14.30;64.58;96226.26;110207;1241;71963;-67
2023/03/10 09:01:27;;;;;;;;;;;;;;;14.52;64.47;96228.10;110143;1243;69237;-69
2023/03/10 09:03:57;;;;;;;;;;;;;;;14.70;63.10;96223.89;110118;1243;69709;-68
2023/03/10 09:06:26;;;;;;;;;;;;;;;14.79;62.64;96226.91;110168;1241;59744;-67
2023/03/10 09:08:54;;;;;;;;;;;;;;;14.95;62.26;96226.18;110155;1245;59722;-67
2023/03/10 09:11:25;;;;;;;;;;;;;;;15.15;62.26;96226.84;110178;1241;72198;-69
2023/03/10 09:13:54;;;;;;;;;;;;;;;15.37;60.98;96222.00;110152;1243;69797;-67
2023/03/10 09:16:23;;;;;;;;;;;;;;;15.57;59.97;96212.17;110160;1241;69826;-68
2023/03/10 09:18:52;;;;;;;;;;;;;;;15.59;59.44;96206.50;110128;1243;59741;-67
2023/03/10 09:21:21;;;;;;;;;;;;;;;15.44;59.36;96208.31;110121;1245;59638;-69
2023/03/10 09:23:51;;;;;;;;;;;;;;;15.30;59.83;96212.73;110148;1243;71678;-67
2023/03/10 09:26:21;;;;;;;;;;;;;;;15.13;59.74;96213.58;110181;1246;69236;-67
2023/03/10 09:28:50;;;;;;;;;;;;;;;14.92;59.67;96214.46;110145;1244;69191;-68
2023/03/10 09:31:23;;;;;;;;;;;;;;;14.87;60.33;96210.77;110140;1242;59714;-68
2023/03/10 09:33:52;;;;;;;;;;;;;;;14.88;60.46;96207.59;110175;1243;59636;-69
2023/03/10 09:36:21;;;;;;;;;;;;;;;14.79;60.59;96201.01;110170;1241;71646;-67
2023/03/10 09:38:49;;;;;;;;;;;;;;;14.64;60.86;96196.15;110135;1244;69782;-67
2023/03/10 09:41:27;;;;;;;;;;;;;;;14.67;61.63;96194.77;110190;1244;69863;-68
2023/03/10 09:44:01;;;;;;;;;;;;;;;14.73;61.16;96187.20;110183;1243;59718;-68
2023/03/10 09:46:36;;;;;;;;;;;;;;;14.76;61.28;96180.77;110146;1243;60139;-66
2023/03/10 09:49:18;;;;;;;;;;;;;;;14.79;61.38;96179.02;110146;1244;71415;-67
2023/03/10 09:51:47;;;;;;;;;;;;;;;14.79;61.48;96172.19;110174;1245;69206;-67
2023/03/10 09:54:36;;;;;;;;;;;;;;;14.81;61.74;96170.94;110139;1241;69493;-68
2023/03/10 09:57:13;;;;;;;;;;;;;;;14.88;61.93;96164.55;110113;1244;59718;-67
2023/03/10 09:59:44;;;;;;;;;;;;;;;15.00;61.15;96161.32;110191;1244;59724;-67
2023/03/10 10:02:16;;;;;;;;;;;;;;;15.08;61.05;96155.52;110122;1244;70625;-67
2023/03/10 10:04:47;;;;;;;;;;;;;;;15.39;60.27;96152.61;110193;1241;68999;-69
2023/03/10 10:07:19;;;;;;;;;;;;;;;15.80;58.63;96152.23;110105;1244;69960;-68
2023/03/10 10:10:15;;;;;;;;;;;;;;;16.17;56.16;96151.09;110188;1241;59735;-66
2023/03/10 10:12:45;;;;;;;;;;;;;;;16.62;54.42;96141.98;110198;1244;59616;-68
2023/03/10 10:15:14;;;;;;;;;;;;;;;17.22;53.28;96140.65;110136;1242;71962;-68
2023/03/10 10:17:55;;;;;;;;;;;;;;;17.88;54.39;96138.58;110126;1241;68548;-68
2023/03/10 10:21:12;;;;;;;;;;;;;;;18.58;52.12;96137.78;110155;1245;69299;-67
2023/03/10 10:23:46;;;;;;;;;;;;;;;18.88;47.41;96136.72;110045;1244;59733;-67
2023/03/10 10:26:19;;;;;;;;;;;;;;;19.33;45.05;96131.25;110159;1244;59684;-68
2023/03/10 10:28:59;;;;;;;;;;;;;;;19.66;45.13;96123.73;110145;1241;71987;-67
2023/03/10 10:31:30;;;;;;;;;;;;;;;19.94;45.45;96118.55;110175;1243;68853;-68
2023/03/10 10:34:00;;;;;;;;;;;;;;;20.40;44.52;96118.77;110102;1241;69457;-67
2023/03/10 10:36:34;;;;;;;;;;;;;;;21.06;43.09;96116.98;110170;1241;60069;-68
2023/03/10 10:39:04;;;;;;;;;;;;;;;21.28;39.08;96116.52;110166;1244;59633;-68
2023/03/10 10:41:33;;;;;;;;;;;;;;;21.44;38.32;96107.68;110114;1245;71779;-69
2023/03/10 10:44:07;;;;;;;;;;;;;;;21.36;38.71;96096.38;110173;1241;69030;-68
2023/03/10 10:46:35;;;;;;;;;;;;;;;21.75;38.69;96088.95;110126;1241;68631;-68
2023/03/10 10:49:06;;;;;;;;;;;;;;;21.81;38.59;96087.48;110075;1246;59770;-68
2023/03/10 10:51:36;;;;;;;;;;;;;;;22.25;37.31;96087.98;110135;1243;59678;-69
2023/03/10 10:54:27;;;;;;;;;;;;;;;22.54;38.09;96085.02;110196;1243;71353;-70
2023/03/10 10:56:57;;;;;;;;;;;;;;;22.92;36.20;96081.39;110203;1243;68378;-69
2023/03/10 10:59:33;;;;;;;;;;;;;;;21.97;34.48;96072.28;110243;1243;69295;-68
2023/03/10 11:02:03;;;;;;;;;;;;;;;22.69;35.60;96070.02;110311;1245;59769;-67
2023/03/10 11:04:43;;;;;;;;;;;;;;;22.90;35.46;96058.85;110216;1245;59673;-68
2023/03/10 11:07:18;;;;;;;;;;;;;;;22.87;35.32;96049.21;110204;1243;71427;-67
2023/03/10 11:09:47;;;;;;;;;;;;;;;22.83;33.67;96043.50;110119;1245;69734;-67
2023/03/10 11:12:20;;;;;;;;;;;;;;;23.06;34.19;96043.07;110145;1245;69260;-68
2023/03/10 11:14:55;;;;;;;;;;;;;;;23.32;33.43;96037.39;110129;1241;60090;-67
2023/03/10 11:17:57;;;;;;;;;;;;;;;23.62;33.26;96043.44;110096;1242;59766;-67
2023/03/10 11:20:38;;;;;;;;;;;;;;;23.82;32.68;96038.55;109918;1242;70289;-69
2023/03/10 11:23:06;;;;;;;;;;;;;;;23.81;32.00;96035.73;110159;1245;69912;-69
2023/03/10 11:25:53;;;;;;;;;;;;;;;24.19;32.66;96029.40;110203;1245;68708;-68
2023/03/10 11:28:28;;;;;;;;;;;;;;;24.31;33.15;96021.54;110147;1241;59675;-70
2023/03/10 11:31:03;;;;;;;;;;;;;;;24.59;32.47;96012.88;110111;1244;59689;-69
2023/03/10 11:33:41;;;;;;;;;;;;;;;24.87;31.97;96006.32;110180;1243;71365;-69
2023/03/10 11:36:26;;;;;;;;;;;;;;;24.30;31.79;95999.13;110189;1241;68765;-67
2023/03/10 11:39:00;;;;;;;;;;;;;;;23.84;32.24;95986.38;110156;1245;69744;-69
2023/03/10 11:41:32;;;;;;;;;;;;;;;23.65;33.33;95981.15;110181;1241;59697;-69
2023/03/10 11:44:19;;;;;;;;;;;;;;;23.54;33.54;95971.44;110141;1245;59697;-67
2023/03/10 11:46:57;;;;;;;;;;;;;;;23.15;33.68;95967.10;110176;1245;71409;-69
2023/03/10 11:49:30;;;;;;;;;;;;;;;22.80;34.03;95964.72;110142;1244;68836;-68
2023/03/10 11:52:00;;;;;;;;;;;;;;;22.28;34.63;95965.24;110124;1241;68498;-67
2023/03/10 11:54:31;;;;;;;;;;;;;;;21.73;35.31;95970.36;110141;1242;59738;-67
2023/03/10 11:57:02;;;;;;;;;;;;;;;20.91;36.82;95966.05;110132;1245;59701;-68
2023/03/10 11:59:33;;;;;;;;;;;;;;;20.59;37.56;95959.42;110181;1241;71998;-68
2023/03/10 12:02:09;;;;;;;;;;;;;;;20.59;37.67;95944.30;110188;1244;70029;-68
2023/03/10 12:04:56;;;;;;;;;;;;;;;21.14;37.69;95939.92;110168;1244;68429;-68
2023/03/10 12:07:27;;;;;;;;;;;;;;;21.67;36.31;95937.35;110085;1244;60090;-67
2023/03/10 12:10:01;;;;;;;;;;;;;;;21.76;35.92;95933.14;110165;1245;59681;-67
2023/03/10 12:12:32;;;;;;;;;;;;;;;22.00;36.37;95927.34;110159;1245;71340;-69
2023/03/10 12:15:04;;;;;;;;;;;;;;;22.38;35.87;95918.13;110164;1244;69144;-68
2023/03/10 12:17:40;;;;;;;;;;;;;;;22.40;35.35;95921.11;110179;1243;69786;-67
2023/03/10 12:20:10;;;;;;;;;;;;;;;22.32;35.28;95917.87;110115;1245;59762;-67
2023/03/10 12:22:39;;;;;;;;;;;;;;;22.10;35.26;95915.41;110193;1243;59678;-68
2023/03/10 12:25:26;;;;;;;;;;;;;;;21.67;35.42;95915.38;110196;1242;71917;-68
2023/03/10 12:28:14;;;;;;;;;;;;;;;21.05;35.78;95917.82;110176;1245;69795;-67
2023/03/10 12:30:46;;;;;;;;;;;;;;;20.39;36.67;95908.50;110132;1243;69892;-67
2023/03/10 12:33:33;;;;;;;;;;;;;;;20.03;37.60;95905.55;110128;1241;59698;-69
2023/03/10 12:36:01;;;;;;;;;;;;;;;19.54;37.69;95903.46;110205;1245;59695;-67
2023/03/10 12:38:34;;;;;;;;;;;;;;;19.42;38.58;95890.46;110098;1245;71387;-67
2023/03/10 12:41:04;;;;;;;;;;;;;;;19.33;37.91;95882.09;110071;1242;68715;-69
2023/03/10 12:43:37;;;;;;;;;;;;;;;19.39;38.34;95877.65;110080;1242;68292;-68
2023/03/10 12:46:10;;;;;;;;;;;;;;;19.39;38.30;95873.02;110120;1245;60195;-67
2023/03/10 12:48:42;;;;;;;;;;;;;;;19.27;39.60;95870.52;110166;1241;59744;-66
2023/03/10 12:51:13;;;;;;;;;;;;;;;19.20;37.47;95863.13;110172;1243;70612;-67
2023/03/10 12:54:00;;;;;;;;;;;;;;;18.96;38.14;95856.95;110116;1243;69192;-67
2023/03/10 12:56:33;;;;;;;;;;;;;;;18.92;38.52;95854.02;110081;1244;69238;-66
2023/03/10 12:59:01;;;;;;;;;;;;;;;18.87;38.18;95854.13;110175;1247;59750;-69
2023/03/10 13:01:34;;;;;;;;;;;;;;;18.72;38.55;95850.88;110191;1241;60002;-69